sensor_id;sensor_type;location;lat;lon;timestamp;temperature;humidity
42617;DHT22;28250;52.320;0.360;2023-11-19T00:00:43;11.40;99.90
42617;DHT22;28250;52.320;0.360;2023-11-19T00:03:09;11.40;99.90
42617;DHT22;28250;52.320;0.360;2023-11-19T00:05:39;11.30;99.90
42617;DHT22;28250;52.320;0.360;2023-11-19T00:08:05;11.30;99.90
42617;DHT22;28250;52.320;0.360;2023-11-19T00:10:34;11.30;99.90
42617;DHT22;28250;52.320;0.360;2023-11-19T00:13:00;11.30;99.90
42617;DHT22;28250;52.320;0.360;2023-11-19T00:15:28;11.20;99.90
42617;DHT22;28250;52.320;0.360;2023-11-19T00:17:54;11.30;99.90
42617;DHT22;28250;52.320;0.360;2023-11-19T00:20:20;11.30;99.90
42617;DHT22;28250;52.320;0.360;2023-11-19T00:22:49;11.30;99.90
42617;DHT22;28250;52.320;0.360;2023-11-19T00:25:18;11.30;99.90
42617;DHT22;28250;52.320;0.360;2023-11-19T00:27:45;11.30;99.90
42617;DHT22;28250;52.320;0.360;2023-11-19T00:30:11;11.30;99.90
42617;DHT22;28250;52.320;0.360;2023-11-19T00:32:39;11.30;99.90
42617;DHT22;28250;52.320;0.360;2023-11-19T00:35:08;11.30;99.90
42617;DHT22;28250;52.320;0.360;2023-11-19T00:37:35;11.30;99.90
42617;DHT22;28250;52.320;0.360;2023-11-19T00:40:02;11.20;99.90
42617;DHT22;28250;52.320;0.360;2023-11-19T00:42:31;11.20;99.90
42617;DHT22;28250;52.320;0.360;2023-11-19T00:44:57;11.20;99.90
42617;DHT22;28250;52.320;0.360;2023-11-19T00:47:23;11.10;99.90
42617;DHT22;28250;52.320;0.360;2023-11-19T00:49:49;11.10;99.90
42617;DHT22;28250;52.320;0.360;2023-11-19T00:52:16;11.00;99.90
42617;DHT22;28250;52.320;0.360;2023-11-19T00:54:43;11.00;99.90
42617;DHT22;28250;52.320;0.360;2023-11-19T00:57:09;11.00;99.90
42617;DHT22;28250;52.320;0.360;2023-11-19T00:59:35;10.90;99.90
42617;DHT22;28250;52.320;0.360;2023-11-19T01:02:01;10.90;99.90
42617;DHT22;28250;52.320;0.360;2023-11-19T01:04:35;10.90;99.90
42617;DHT22;28250;52.320;0.360;2023-11-19T01:07:02;10.80;99.90
42617;DHT22;28250;52.320;0.360;2023-11-19T01:09:32;10.90;99.90
42617;DHT22;28250;52.320;0.360;2023-11-19T01:12:01;10.90;99.90
42617;DHT22;28250;52.320;0.360;2023-11-19T01:14:28;10.90;99.90
42617;DHT22;28250;52.320;0.360;2023-11-19T01:16:54;10.80;99.90
42617;DHT22;28250;52.320;0.360;2023-11-19T01:19:24;10.90;99.90
42617;DHT22;28250;52.320;0.360;2023-11-19T01:21:50;10.80;99.90
42617;DHT22;28250;52.320;0.360;2023-11-19T01:24:17;10.80;99.90
42617;DHT22;28250;52.320;0.360;2023-11-19T01:26:43;11.00;99.90
42617;DHT22;28250;52.320;0.360;2023-11-19T01:29:13;11.00;99.90
42617;DHT22;28250;52.320;0.360;2023-11-19T01:31:43;10.90;99.90
42617;DHT22;28250;52.320;0.360;2023-11-19T01:34:11;10.80;99.90
42617;DHT22;28250;52.320;0.360;2023-11-19T01:36:40;10.80;99.90
42617;DHT22;28250;52.320;0.360;2023-11-19T01:39:06;10.70;99.90
42617;DHT22;28250;52.320;0.360;2023-11-19T01:41:35;10.70;99.90
42617;DHT22;28250;52.320;0.360;2023-11-19T01:44:02;10.80;99.90
42617;DHT22;28250;52.320;0.360;2023-11-19T01:46:29;10.70;99.90
42617;DHT22;28250;52.320;0.360;2023-11-19T01:48:59;10.60;99.90
42617;DHT22;28250;52.320;0.360;2023-11-19T01:51:26;10.70;99.90
42617;DHT22;28250;52.320;0.360;2023-11-19T01:53:54;10.70;99.90
42617;DHT22;28250;52.320;0.360;2023-11-19T01:56:20;10.70;99.90
42617;DHT22;28250;52.320;0.360;2023-11-19T01:58:48;10.80;99.90
42617;DHT22;28250;52.320;0.360;2023-11-19T02:01:15;10.70;99.90
42617;DHT22;28250;52.320;0.360;2023-11-19T02:03:43;10.70;99.90
42617;DHT22;28250;52.320;0.360;2023-11-19T02:06:09;10.80;99.90
42617;DHT22;28250;52.320;0.360;2023-11-19T02:08:39;10.80;99.90
42617;DHT22;28250;52.320;0.360;2023-11-19T02:11:05;10.70;99.90
42617;DHT22;28250;52.320;0.360;2023-11-19T02:13:32;10.70;99.90
42617;DHT22;28250;52.320;0.360;2023-11-19T02:16:02;10.80;99.90
42617;DHT22;28250;52.320;0.360;2023-11-19T02:18:29;10.70;99.90
42617;DHT22;28250;52.320;0.360;2023-11-19T02:20:59;10.80;99.90
42617;DHT22;28250;52.320;0.360;2023-11-19T02:23:30;10.80;99.90
42617;DHT22;28250;52.320;0.360;2023-11-19T02:28:59;10.80;99.90
42617;DHT22;28250;52.320;0.360;2023-11-19T02:31:25;10.80;99.90
42617;DHT22;28250;52.320;0.360;2023-11-19T02:33:53;10.80;99.90
42617;DHT22;28250;52.320;0.360;2023-11-19T02:36:19;10.80;99.90
42617;DHT22;28250;52.320;0.360;2023-11-19T02:38:47;10.90;99.90
42617;DHT22;28250;52.320;0.360;2023-11-19T02:41:14;10.90;99.90
42617;DHT22;28250;52.320;0.360;2023-11-19T02:43:40;10.90;99.90
42617;DHT22;28250;52.320;0.360;2023-11-19T02:46:06;11.00;99.90
42617;DHT22;28250;52.320;0.360;2023-11-19T02:48:35;10.90;99.90
42617;DHT22;28250;52.320;0.360;2023-11-19T02:51:02;10.80;99.90
42617;DHT22;28250;52.320;0.360;2023-11-19T02:53:29;10.80;99.90
42617;DHT22;28250;52.320;0.360;2023-11-19T02:55:56;10.80;99.90
42617;DHT22;28250;52.320;0.360;2023-11-19T02:58:35;10.80;99.90
42617;DHT22;28250;52.320;0.360;2023-11-19T03:01:01;10.70;99.90
42617;DHT22;28250;52.320;0.360;2023-11-19T03:03:36;10.70;99.90
42617;DHT22;28250;52.320;0.360;2023-11-19T03:06:06;10.80;99.90
42617;DHT22;28250;52.320;0.360;2023-11-19T03:08:35;10.80;99.90
42617;DHT22;28250;52.320;0.360;2023-11-19T03:11:02;10.70;99.90
42617;DHT22;28250;52.320;0.360;2023-11-19T03:13:28;10.80;99.90
42617;DHT22;28250;52.320;0.360;2023-11-19T03:15:54;10.70;99.90
42617;DHT22;28250;52.320;0.360;2023-11-19T03:18:20;10.80;99.90
42617;DHT22;28250;52.320;0.360;2023-11-19T03:20:47;10.80;99.90
42617;DHT22;28250;52.320;0.360;2023-11-19T03:23:13;10.70;99.90
42617;DHT22;28250;52.320;0.360;2023-11-19T03:25:39;10.70;99.90
42617;DHT22;28250;52.320;0.360;2023-11-19T03:28:05;10.70;99.90
42617;DHT22;28250;52.320;0.360;2023-11-19T03:30:32;10.70;99.90
42617;DHT22;28250;52.320;0.360;2023-11-19T03:32:58;10.60;99.90
42617;DHT22;28250;52.320;0.360;2023-11-19T03:35:26;10.60;99.90
42617;DHT22;28250;52.320;0.360;2023-11-19T03:37:53;10.60;99.90
42617;DHT22;28250;52.320;0.360;2023-11-19T03:40:19;10.60;99.90
42617;DHT22;28250;52.320;0.360;2023-11-19T03:42:46;10.80;99.90
42617;DHT22;28250;52.320;0.360;2023-11-19T03:45:12;10.80;99.90
42617;DHT22;28250;52.320;0.360;2023-11-19T03:47:39;10.70;99.90
42617;DHT22;28250;52.320;0.360;2023-11-19T03:50:06;10.70;99.90
42617;DHT22;28250;52.320;0.360;2023-11-19T03:52:34;10.70;99.90
42617;DHT22;28250;52.320;0.360;2023-11-19T03:55:00;10.80;99.90
42617;DHT22;28250;52.320;0.360;2023-11-19T03:57:27;10.70;99.90
42617;DHT22;28250;52.320;0.360;2023-11-19T03:59:54;10.70;99.90
42617;DHT22;28250;52.320;0.360;2023-11-19T04:02:21;10.70;99.90
42617;DHT22;28250;52.320;0.360;2023-11-19T04:04:47;10.70;99.90
42617;DHT22;28250;52.320;0.360;2023-11-19T04:07:13;10.80;99.90
42617;DHT22;28250;52.320;0.360;2023-11-19T04:09:39;10.80;99.90
42617;DHT22;28250;52.320;0.360;2023-11-19T04:12:06;10.90;99.90
42617;DHT22;28250;52.320;0.360;2023-11-19T04:14:32;11.00;99.90
42617;DHT22;28250;52.320;0.360;2023-11-19T04:16:58;11.00;99.90
42617;DHT22;28250;52.320;0.360;2023-11-19T04:19:24;11.10;99.90
42617;DHT22;28250;52.320;0.360;2023-11-19T04:21:50;11.10;99.90
42617;DHT22;28250;52.320;0.360;2023-11-19T04:24:17;11.20;99.90
42617;DHT22;28250;52.320;0.360;2023-11-19T04:26:45;11.10;99.90
42617;DHT22;28250;52.320;0.360;2023-11-19T04:29:12;11.10;99.90
42617;DHT22;28250;52.320;0.360;2023-11-19T04:31:40;11.20;99.90
42617;DHT22;28250;52.320;0.360;2023-11-19T04:34:07;11.30;99.90
42617;DHT22;28250;52.320;0.360;2023-11-19T04:36:33;11.30;99.90
42617;DHT22;28250;52.320;0.360;2023-11-19T04:39:00;11.20;99.90
42617;DHT22;28250;52.320;0.360;2023-11-19T04:41:27;11.20;99.90
42617;DHT22;28250;52.320;0.360;2023-11-19T04:43:56;11.20;99.90
42617;DHT22;28250;52.320;0.360;2023-11-19T04:46:22;11.20;99.90
42617;DHT22;28250;52.320;0.360;2023-11-19T04:48:49;11.20;99.90
42617;DHT22;28250;52.320;0.360;2023-11-19T04:51:16;11.30;99.90
42617;DHT22;28250;52.320;0.360;2023-11-19T04:53:42;11.20;99.90
42617;DHT22;28250;52.320;0.360;2023-11-19T04:56:09;11.20;99.90
42617;DHT22;28250;52.320;0.360;2023-11-19T04:58:36;11.20;99.90
42617;DHT22;28250;52.320;0.360;2023-11-19T05:01:03;11.20;99.90
42617;DHT22;28250;52.320;0.360;2023-11-19T05:03:33;11.20;99.90
42617;DHT22;28250;52.320;0.360;2023-11-19T05:05:59;11.20;99.90
42617;DHT22;28250;52.320;0.360;2023-11-19T05:08:26;11.10;99.90
42617;DHT22;28250;52.320;0.360;2023-11-19T05:10:56;11.10;99.90
42617;DHT22;28250;52.320;0.360;2023-11-19T05:13:23;11.10;99.90
42617;DHT22;28250;52.320;0.360;2023-11-19T05:15:49;11.10;99.90
42617;DHT22;28250;52.320;0.360;2023-11-19T05:18:15;11.10;99.90
42617;DHT22;28250;52.320;0.360;2023-11-19T05:20:41;11.00;99.90
42617;DHT22;28250;52.320;0.360;2023-11-19T05:23:07;10.90;99.90
42617;DHT22;28250;52.320;0.360;2023-11-19T05:25:33;10.90;99.90
42617;DHT22;28250;52.320;0.360;2023-11-19T05:27:59;10.90;99.90
42617;DHT22;28250;52.320;0.360;2023-11-19T05:30:25;10.90;99.90
42617;DHT22;28250;52.320;0.360;2023-11-19T05:32:51;10.90;99.90
42617;DHT22;28250;52.320;0.360;2023-11-19T05:35:17;10.80;99.90
42617;DHT22;28250;52.320;0.360;2023-11-19T05:37:43;10.90;99.90
42617;DHT22;28250;52.320;0.360;2023-11-19T05:40:09;10.80;99.90
42617;DHT22;28250;52.320;0.360;2023-11-19T05:42:40;10.90;99.90
42617;DHT22;28250;52.320;0.360;2023-11-19T05:45:07;10.80;99.90
42617;DHT22;28250;52.320;0.360;2023-11-19T05:47:36;10.80;99.90
42617;DHT22;28250;52.320;0.360;2023-11-19T05:50:04;10.80;99.90
42617;DHT22;28250;52.320;0.360;2023-11-19T05:52:31;10.70;99.90
42617;DHT22;28250;52.320;0.360;2023-11-19T05:55:02;10.70;99.90
42617;DHT22;28250;52.320;0.360;2023-11-19T05:57:36;10.90;99.90
42617;DHT22;28250;52.320;0.360;2023-11-19T06:00:03;10.90;99.90
42617;DHT22;28250;52.320;0.360;2023-11-19T06:02:37;10.90;99.90
42617;DHT22;28250;52.320;0.360;2023-11-19T06:05:04;10.80;99.90
42617;DHT22;28250;52.320;0.360;2023-11-19T06:07:32;10.80;99.90
42617;DHT22;28250;52.320;0.360;2023-11-19T06:09:59;10.80;99.90
42617;DHT22;28250;52.320;0.360;2023-11-19T06:12:24;10.80;99.90
42617;DHT22;28250;52.320;0.360;2023-11-19T06:14:53;10.80;99.90
42617;DHT22;28250;52.320;0.360;2023-11-19T06:17:19;10.80;99.90
42617;DHT22;28250;52.320;0.360;2023-11-19T06:19:45;10.90;99.90
42617;DHT22;28250;52.320;0.360;2023-11-19T06:22:11;10.90;99.90
42617;DHT22;28250;52.320;0.360;2023-11-19T06:24:37;10.90;99.90
42617;DHT22;28250;52.320;0.360;2023-11-19T06:27:03;10.80;99.90
42617;DHT22;28250;52.320;0.360;2023-11-19T06:29:30;10.90;99.90
42617;DHT22;28250;52.320;0.360;2023-11-19T06:31:56;10.90;99.90
42617;DHT22;28250;52.320;0.360;2023-11-19T06:34:22;10.90;99.90
42617;DHT22;28250;52.320;0.360;2023-11-19T06:36:48;10.80;99.90
42617;DHT22;28250;52.320;0.360;2023-11-19T06:39:14;10.90;99.90
42617;DHT22;28250;52.320;0.360;2023-11-19T06:41:45;10.80;99.90
42617;DHT22;28250;52.320;0.360;2023-11-19T06:44:12;10.80;99.90
42617;DHT22;28250;52.320;0.360;2023-11-19T06:46:38;10.70;99.90
42617;DHT22;28250;52.320;0.360;2023-11-19T06:49:05;10.70;99.90
42617;DHT22;28250;52.320;0.360;2023-11-19T06:51:31;10.70;99.90
42617;DHT22;28250;52.320;0.360;2023-11-19T06:53:57;10.70;99.90
42617;DHT22;28250;52.320;0.360;2023-11-19T06:56:24;10.70;99.90
42617;DHT22;28250;52.320;0.360;2023-11-19T06:58:50;10.70;99.90
42617;DHT22;28250;52.320;0.360;2023-11-19T07:01:17;10.70;99.90
42617;DHT22;28250;52.320;0.360;2023-11-19T07:03:47;10.70;99.90
42617;DHT22;28250;52.320;0.360;2023-11-19T07:06:14;10.80;99.90
42617;DHT22;28250;52.320;0.360;2023-11-19T07:08:43;10.70;99.90
42617;DHT22;28250;52.320;0.360;2023-11-19T07:11:11;10.70;99.90
42617;DHT22;28250;52.320;0.360;2023-11-19T07:13:37;10.60;99.90
42617;DHT22;28250;52.320;0.360;2023-11-19T07:16:04;10.50;99.90
42617;DHT22;28250;52.320;0.360;2023-11-19T07:18:30;10.50;99.90
42617;DHT22;28250;52.320;0.360;2023-11-19T07:20:57;10.50;99.90
42617;DHT22;28250;52.320;0.360;2023-11-19T07:23:25;10.50;99.90
42617;DHT22;28250;52.320;0.360;2023-11-19T07:25:51;10.50;99.90
42617;DHT22;28250;52.320;0.360;2023-11-19T07:28:19;10.50;99.90
42617;DHT22;28250;52.320;0.360;2023-11-19T07:30:45;10.40;99.90
42617;DHT22;28250;52.320;0.360;2023-11-19T07:33:11;10.40;99.90
42617;DHT22;28250;52.320;0.360;2023-11-19T07:35:39;10.50;99.90
42617;DHT22;28250;52.320;0.360;2023-11-19T07:38:08;10.50;99.90
42617;DHT22;28250;52.320;0.360;2023-11-19T07:40:34;10.60;99.90
42617;DHT22;28250;52.320;0.360;2023-11-19T07:43:00;10.60;99.90
42617;DHT22;28250;52.320;0.360;2023-11-19T07:45:26;10.70;99.90
42617;DHT22;28250;52.320;0.360;2023-11-19T07:47:53;10.70;99.90
42617;DHT22;28250;52.320;0.360;2023-11-19T07:50:20;10.70;99.90
42617;DHT22;28250;52.320;0.360;2023-11-19T07:52:46;10.70;99.90
42617;DHT22;28250;52.320;0.360;2023-11-19T07:55:12;10.70;99.90
42617;DHT22;28250;52.320;0.360;2023-11-19T07:57:38;10.60;99.90
42617;DHT22;28250;52.320;0.360;2023-11-19T08:00:05;10.70;99.90
42617;DHT22;28250;52.320;0.360;2023-11-19T08:02:38;10.70;99.90
42617;DHT22;28250;52.320;0.360;2023-11-19T08:05:05;10.70;99.90
42617;DHT22;28250;52.320;0.360;2023-11-19T08:07:31;10.70;99.90
42617;DHT22;28250;52.320;0.360;2023-11-19T08:09:57;10.80;99.90
42617;DHT22;28250;52.320;0.360;2023-11-19T08:12:23;10.80;99.90
42617;DHT22;28250;52.320;0.360;2023-11-19T08:14:49;10.80;99.90
42617;DHT22;28250;52.320;0.360;2023-11-19T08:17:15;10.80;99.90
42617;DHT22;28250;52.320;0.360;2023-11-19T08:19:41;10.80;99.90
42617;DHT22;28250;52.320;0.360;2023-11-19T08:22:07;10.90;99.90
42617;DHT22;28250;52.320;0.360;2023-11-19T08:24:35;10.90;99.90
42617;DHT22;28250;52.320;0.360;2023-11-19T08:27:01;10.90;99.90
42617;DHT22;28250;52.320;0.360;2023-11-19T08:29:27;10.90;99.90
42617;DHT22;28250;52.320;0.360;2023-11-19T08:31:53;10.90;99.90
42617;DHT22;28250;52.320;0.360;2023-11-19T08:34:19;11.00;99.90
42617;DHT22;28250;52.320;0.360;2023-11-19T08:36:45;11.10;99.90
42617;DHT22;28250;52.320;0.360;2023-11-19T08:39:11;11.20;99.90
42617;DHT22;28250;52.320;0.360;2023-11-19T08:41:39;11.30;99.90
42617;DHT22;28250;52.320;0.360;2023-11-19T08:44:07;11.40;99.90
42617;DHT22;28250;52.320;0.360;2023-11-19T08:46:33;11.50;99.90
42617;DHT22;28250;52.320;0.360;2023-11-19T08:48:59;11.60;99.90
42617;DHT22;28250;52.320;0.360;2023-11-19T08:51:26;11.70;99.90
42617;DHT22;28250;52.320;0.360;2023-11-19T08:53:51;11.70;99.90
42617;DHT22;28250;52.320;0.360;2023-11-19T08:56:17;11.80;99.90
42617;DHT22;28250;52.320;0.360;2023-11-19T08:58:43;11.80;99.90
42617;DHT22;28250;52.320;0.360;2023-11-19T09:01:09;11.90;99.90
42617;DHT22;28250;52.320;0.360;2023-11-19T09:03:35;12.00;99.90
42617;DHT22;28250;52.320;0.360;2023-11-19T09:06:02;12.00;99.90
42617;DHT22;28250;52.320;0.360;2023-11-19T09:08:28;11.90;99.90
42617;DHT22;28250;52.320;0.360;2023-11-19T09:10:55;11.90;99.90
42617;DHT22;28250;52.320;0.360;2023-11-19T09:13:21;12.00;99.90
42617;DHT22;28250;52.320;0.360;2023-11-19T09:15:46;12.00;99.90
42617;DHT22;28250;52.320;0.360;2023-11-19T09:18:12;12.00;99.90
42617;DHT22;28250;52.320;0.360;2023-11-19T09:20:38;12.10;99.90
42617;DHT22;28250;52.320;0.360;2023-11-19T09:23:05;12.30;99.90
42617;DHT22;28250;52.320;0.360;2023-11-19T09:25:32;12.40;99.90
42617;DHT22;28250;52.320;0.360;2023-11-19T09:27:58;12.50;99.90
42617;DHT22;28250;52.320;0.360;2023-11-19T09:30:24;12.50;99.90
42617;DHT22;28250;52.320;0.360;2023-11-19T09:32:50;12.50;99.90
42617;DHT22;28250;52.320;0.360;2023-11-19T09:35:16;12.50;99.90
42617;DHT22;28250;52.320;0.360;2023-11-19T09:37:43;12.40;99.90
42617;DHT22;28250;52.320;0.360;2023-11-19T09:40:09;12.40;99.90
42617;DHT22;28250;52.320;0.360;2023-11-19T09:42:43;12.40;99.90
42617;DHT22;28250;52.320;0.360;2023-11-19T09:45:16;12.40;99.90
42617;DHT22;28250;52.320;0.360;2023-11-19T09:47:44;12.50;99.90
42617;DHT22;28250;52.320;0.360;2023-11-19T09:50:19;12.50;99.90
42617;DHT22;28250;52.320;0.360;2023-11-19T09:52:46;12.40;99.90
42617;DHT22;28250;52.320;0.360;2023-11-19T09:55:13;12.40;99.90
42617;DHT22;28250;52.320;0.360;2023-11-19T09:57:40;12.30;99.90
42617;DHT22;28250;52.320;0.360;2023-11-19T10:00:08;12.30;99.90
42617;DHT22;28250;52.320;0.360;2023-11-19T10:02:36;12.30;99.90
42617;DHT22;28250;52.320;0.360;2023-11-19T10:05:07;12.30;99.90
42617;DHT22;28250;52.320;0.360;2023-11-19T10:07:33;12.40;99.90
42617;DHT22;28250;52.320;0.360;2023-11-19T10:10:00;12.30;99.90
42617;DHT22;28250;52.320;0.360;2023-11-19T10:12:28;12.40;99.90
42617;DHT22;28250;52.320;0.360;2023-11-19T10:14:56;12.50;99.90
42617;DHT22;28250;52.320;0.360;2023-11-19T10:17:33;12.70;99.90
42617;DHT22;28250;52.320;0.360;2023-11-19T10:20:01;12.70;99.90
42617;DHT22;28250;52.320;0.360;2023-11-19T10:22:28;12.70;99.90
42617;DHT22;28250;52.320;0.360;2023-11-19T10:24:56;12.70;99.90
42617;DHT22;28250;52.320;0.360;2023-11-19T10:27:26;13.00;99.90
42617;DHT22;28250;52.320;0.360;2023-11-19T10:29:52;13.10;99.90
42617;DHT22;28250;52.320;0.360;2023-11-19T10:32:18;13.00;99.90
42617;DHT22;28250;52.320;0.360;2023-11-19T10:34:44;12.90;99.90
42617;DHT22;28250;52.320;0.360;2023-11-19T10:37:27;12.90;99.90
42617;DHT22;28250;52.320;0.360;2023-11-19T10:39:55;13.00;99.90
42617;DHT22;28250;52.320;0.360;2023-11-19T10:42:21;13.20;99.90
42617;DHT22;28250;52.320;0.360;2023-11-19T10:44:48;13.20;99.90
42617;DHT22;28250;52.320;0.360;2023-11-19T10:47:14;13.40;99.90
42617;DHT22;28250;52.320;0.360;2023-11-19T10:49:43;13.60;99.90
42617;DHT22;28250;52.320;0.360;2023-11-19T10:52:09;13.60;99.90
42617;DHT22;28250;52.320;0.360;2023-11-19T10:54:35;13.30;99.90
42617;DHT22;28250;52.320;0.360;2023-11-19T10:57:02;13.20;99.90
42617;DHT22;28250;52.320;0.360;2023-11-19T10:59:31;13.10;99.90
42617;DHT22;28250;52.320;0.360;2023-11-19T11:02:03;13.10;99.90
42617;DHT22;28250;52.320;0.360;2023-11-19T11:04:39;13.20;99.90
42617;DHT22;28250;52.320;0.360;2023-11-19T11:07:07;13.10;99.90
42617;DHT22;28250;52.320;0.360;2023-11-19T11:09:35;13.20;99.90
42617;DHT22;28250;52.320;0.360;2023-11-19T11:12:01;13.20;99.90
42617;DHT22;28250;52.320;0.360;2023-11-19T11:14:28;13.30;99.90
42617;DHT22;28250;52.320;0.360;2023-11-19T11:16:56;13.30;99.90
42617;DHT22;28250;52.320;0.360;2023-11-19T11:19:24;13.40;99.90
42617;DHT22;28250;52.320;0.360;2023-11-19T11:21:53;13.50;99.90
42617;DHT22;28250;52.320;0.360;2023-11-19T11:30:53;13.80;99.90
42617;DHT22;28250;52.320;0.360;2023-11-19T11:33:48;13.60;99.90
42617;DHT22;28250;52.320;0.360;2023-11-19T11:36:26;13.60;99.90
42617;DHT22;28250;52.320;0.360;2023-11-19T11:38:53;13.50;99.90
42617;DHT22;28250;52.320;0.360;2023-11-19T11:41:24;13.60;99.90
42617;DHT22;28250;52.320;0.360;2023-11-19T11:43:51;13.60;99.90
42617;DHT22;28250;52.320;0.360;2023-11-19T11:49:00;13.80;99.90
42617;DHT22;28250;52.320;0.360;2023-11-19T11:54:26;13.70;99.90
42617;DHT22;28250;52.320;0.360;2023-11-19T11:57:21;13.60;99.90
42617;DHT22;28250;52.320;0.360;2023-11-19T11:59:49;13.50;99.90
42617;DHT22;28250;52.320;0.360;2023-11-19T12:02:17;13.50;99.90
42617;DHT22;28250;52.320;0.360;2023-11-19T12:04:51;13.40;99.90
42617;DHT22;28250;52.320;0.360;2023-11-19T12:07:22;13.40;99.90
42617;DHT22;28250;52.320;0.360;2023-11-19T12:09:52;13.20;99.90
42617;DHT22;28250;52.320;0.360;2023-11-19T12:12:23;13.20;99.90
42617;DHT22;28250;52.320;0.360;2023-11-19T12:20:05;13.20;99.90
42617;DHT22;28250;52.320;0.360;2023-11-19T12:22:39;13.30;99.90
42617;DHT22;28250;52.320;0.360;2023-11-19T12:25:08;13.30;99.90
42617;DHT22;28250;52.320;0.360;2023-11-19T12:28:00;13.30;99.90
42617;DHT22;28250;52.320;0.360;2023-11-19T12:30:26;13.20;99.90
42617;DHT22;28250;52.320;0.360;2023-11-19T12:32:52;13.20;99.90
42617;DHT22;28250;52.320;0.360;2023-11-19T12:35:22;13.30;99.90
42617;DHT22;28250;52.320;0.360;2023-11-19T12:37:50;13.20;99.90
42617;DHT22;28250;52.320;0.360;2023-11-19T12:40:22;13.20;99.90
42617;DHT22;28250;52.320;0.360;2023-11-19T12:42:49;13.20;99.90
42617;DHT22;28250;52.320;0.360;2023-11-19T12:45:19;13.10;99.90
42617;DHT22;28250;52.320;0.360;2023-11-19T12:47:47;13.10;99.90
42617;DHT22;28250;52.320;0.360;2023-11-19T12:50:15;13.20;99.90
42617;DHT22;28250;52.320;0.360;2023-11-19T12:52:55;13.20;99.90
42617;DHT22;28250;52.320;0.360;2023-11-19T12:55:28;13.20;99.90
42617;DHT22;28250;52.320;0.360;2023-11-19T12:57:54;13.20;99.90
42617;DHT22;28250;52.320;0.360;2023-11-19T13:00:23;13.20;99.90
42617;DHT22;28250;52.320;0.360;2023-11-19T13:02:51;13.10;99.90
42617;DHT22;28250;52.320;0.360;2023-11-19T13:05:25;13.00;99.90
42617;DHT22;28250;52.320;0.360;2023-11-19T13:13:22;12.70;99.90
42617;DHT22;28250;52.320;0.360;2023-11-19T13:15:48;12.60;99.90
42617;DHT22;28250;52.320;0.360;2023-11-19T13:18:16;12.50;99.90
42617;DHT22;28250;52.320;0.360;2023-11-19T13:20:42;12.60;99.90
42617;DHT22;28250;52.320;0.360;2023-11-19T13:23:08;12.60;99.90
42617;DHT22;28250;52.320;0.360;2023-11-19T13:25:36;12.70;99.90
42617;DHT22;28250;52.320;0.360;2023-11-19T13:28:02;12.60;99.90
42617;DHT22;28250;52.320;0.360;2023-11-19T13:30:28;12.70;99.90
42617;DHT22;28250;52.320;0.360;2023-11-19T13:32:55;12.70;99.90
42617;DHT22;28250;52.320;0.360;2023-11-19T13:35:22;12.80;99.90
42617;DHT22;28250;52.320;0.360;2023-11-19T13:37:48;12.80;99.90
42617;DHT22;28250;52.320;0.360;2023-11-19T13:40:14;12.90;99.90
42617;DHT22;28250;52.320;0.360;2023-11-19T13:42:41;13.00;99.90
42617;DHT22;28250;52.320;0.360;2023-11-19T13:45:12;13.00;99.90
42617;DHT22;28250;52.320;0.360;2023-11-19T13:47:44;13.10;99.90
42617;DHT22;28250;52.320;0.360;2023-11-19T13:50:12;13.10;99.90
42617;DHT22;28250;52.320;0.360;2023-11-19T13:52:40;13.20;99.90
42617;DHT22;28250;52.320;0.360;2023-11-19T13:55:08;13.20;99.90
42617;DHT22;28250;52.320;0.360;2023-11-19T13:57:36;13.20;99.90
42617;DHT22;28250;52.320;0.360;2023-11-19T14:00:07;13.20;99.90
42617;DHT22;28250;52.320;0.360;2023-11-19T14:02:39;13.20;99.90
42617;DHT22;28250;52.320;0.360;2023-11-19T14:05:06;13.10;99.90
42617;DHT22;28250;52.320;0.360;2023-11-19T14:07:33;13.00;99.90
42617;DHT22;28250;52.320;0.360;2023-11-19T14:09:59;13.00;99.90
42617;DHT22;28250;52.320;0.360;2023-11-19T14:12:25;13.00;99.90
42617;DHT22;28250;52.320;0.360;2023-11-19T14:14:51;13.00;99.90
42617;DHT22;28250;52.320;0.360;2023-11-19T14:17:17;13.00;99.90
42617;DHT22;28250;52.320;0.360;2023-11-19T14:19:44;13.00;99.90
42617;DHT22;28250;52.320;0.360;2023-11-19T14:22:10;13.00;99.90
42617;DHT22;28250;52.320;0.360;2023-11-19T14:24:37;13.00;99.90
42617;DHT22;28250;52.320;0.360;2023-11-19T14:27:03;13.00;99.90
42617;DHT22;28250;52.320;0.360;2023-11-19T14:29:30;13.10;99.90
42617;DHT22;28250;52.320;0.360;2023-11-19T14:31:57;13.00;99.90
42617;DHT22;28250;52.320;0.360;2023-11-19T14:34:24;13.00;99.90
42617;DHT22;28250;52.320;0.360;2023-11-19T14:36:52;13.00;99.90
42617;DHT22;28250;52.320;0.360;2023-11-19T14:39:19;12.90;99.90
42617;DHT22;28250;52.320;0.360;2023-11-19T14:41:45;13.00;99.90
42617;DHT22;28250;52.320;0.360;2023-11-19T14:44:11;13.00;99.90
42617;DHT22;28250;52.320;0.360;2023-11-19T14:46:38;13.00;99.90
42617;DHT22;28250;52.320;0.360;2023-11-19T14:49:04;13.00;99.90
42617;DHT22;28250;52.320;0.360;2023-11-19T14:51:30;13.00;99.90
42617;DHT22;28250;52.320;0.360;2023-11-19T14:53:57;12.90;99.90
42617;DHT22;28250;52.320;0.360;2023-11-19T14:56:23;12.90;99.90
42617;DHT22;28250;52.320;0.360;2023-11-19T14:58:49;12.90;99.90
42617;DHT22;28250;52.320;0.360;2023-11-19T15:01:16;12.80;99.90
42617;DHT22;28250;52.320;0.360;2023-11-19T15:03:44;12.90;99.90
42617;DHT22;28250;52.320;0.360;2023-11-19T15:06:10;12.80;99.90
42617;DHT22;28250;52.320;0.360;2023-11-19T15:08:37;12.80;99.90
42617;DHT22;28250;52.320;0.360;2023-11-19T15:11:03;12.80;99.90
42617;DHT22;28250;52.320;0.360;2023-11-19T15:13:32;12.80;99.90
42617;DHT22;28250;52.320;0.360;2023-11-19T15:15:59;12.80;99.90
42617;DHT22;28250;52.320;0.360;2023-11-19T15:18:25;12.80;99.90
42617;DHT22;28250;52.320;0.360;2023-11-19T15:20:51;12.90;99.90
42617;DHT22;28250;52.320;0.360;2023-11-19T15:23:17;12.90;99.90
42617;DHT22;28250;52.320;0.360;2023-11-19T15:25:45;12.90;99.90
42617;DHT22;28250;52.320;0.360;2023-11-19T15:28:11;12.90;99.90
42617;DHT22;28250;52.320;0.360;2023-11-19T15:30:37;12.90;99.90
42617;DHT22;28250;52.320;0.360;2023-11-19T15:33:03;12.80;99.90
42617;DHT22;28250;52.320;0.360;2023-11-19T15:35:29;12.80;99.90
42617;DHT22;28250;52.320;0.360;2023-11-19T15:37:55;12.80;99.90
42617;DHT22;28250;52.320;0.360;2023-11-19T15:40:22;12.80;99.90
42617;DHT22;28250;52.320;0.360;2023-11-19T15:42:48;12.70;99.90
42617;DHT22;28250;52.320;0.360;2023-11-19T15:45:14;12.70;99.90
42617;DHT22;28250;52.320;0.360;2023-11-19T15:47:42;12.70;99.90
42617;DHT22;28250;52.320;0.360;2023-11-19T15:50:08;12.70;99.90
42617;DHT22;28250;52.320;0.360;2023-11-19T15:52:35;12.70;99.90
42617;DHT22;28250;52.320;0.360;2023-11-19T15:55:01;12.70;99.90
42617;DHT22;28250;52.320;0.360;2023-11-19T15:57:28;12.60;99.90